Time;durP1;ratioP1;P1;durP2;ratioP2;P2;SDS_P1;SDS_P2;PMS_P1;PMS_P2;Temp;Humidity;BMP_temperature;BMP_pressure;BME280_temperature;BME280_humidity;BME280_pressure;Samples;Min_cycle;Max_cycle;Signal;HPM_P1;HPM_P2
2022/10/17 00:00:32;;;;;;;0.00;0.00;;;16.00;99.90;;;;;;5070535;28;20738;-75
2022/10/17 00:03:00;;;;;;;0.00;0.00;;;16.00;99.90;;;;;;5070683;28;20243;-75
2022/10/17 00:05:28;;;;;;;0.00;0.00;;;16.00;99.90;;;;;;5072410;28;20272;-74
2022/10/17 00:07:56;;;;;;;0.00;0.00;;;16.00;99.90;;;;;;5070776;28;20688;-75
2022/10/17 00:10:25;;;;;;;0.10;0.10;;;16.00;99.90;;;;;;5071529;28;20201;-74
2022/10/17 00:12:53;;;;;;;0.00;0.00;;;16.10;99.90;;;;;;5066583;28;20688;-75
2022/10/17 00:15:21;;;;;;;0.00;0.00;;;16.00;99.90;;;;;;5071651;28;20255;-75
2022/10/17 00:17:49;;;;;;;0.00;0.00;;;16.00;99.90;;;;;;5073826;28;20753;-75
2022/10/17 00:20:17;;;;;;;0.00;0.00;;;16.00;99.90;;;;;;5071256;28;20243;-74
2022/10/17 00:22:46;;;;;;;0.00;0.00;;;16.00;99.90;;;;;;5085551;28;20571;-75
2022/10/17 00:25:14;;;;;;;0.00;0.00;;;16.00;99.90;;;;;;5091136;28;20197;-75
2022/10/17 00:27:43;;;;;;;0.00;0.00;;;16.00;99.90;;;;;;5070931;28;20275;-74
2022/10/17 00:30:14;;;;;;;0.00;0.00;;;16.00;99.90;;;;;;5069546;28;20715;-74
2022/10/17 00:32:42;;;;;;;0.00;0.00;;;16.00;99.90;;;;;;5070019;28;20902;-74
2022/10/17 00:35:11;;;;;;;0.00;0.00;;;16.00;99.90;;;;;;5070219;28;20263;-74
2022/10/17 00:37:39;;;;;;;0.00;0.00;;;16.00;99.90;;;;;;5071068;28;20205;-75
2022/10/17 00:40:08;;;;;;;0.00;0.00;;;16.10;99.90;;;;;;5070454;28;20225;-75
2022/10/17 00:42:36;;;;;;;0.00;0.00;;;16.10;99.90;;;;;;5070355;28;20648;-76
2022/10/17 00:45:15;;;;;;;0.00;0.00;;;16.10;99.90;;;;;;5071780;28;20194;-76
2022/10/17 00:47:46;;;;;;;0.00;0.00;;;16.00;99.90;;;;;;5058355;28;20734;-75
2022/10/17 00:50:15;;;;;;;0.00;0.00;;;16.10;99.90;;;;;;5069421;28;20213;-75
2022/10/17 00:52:44;;;;;;;0.00;0.00;;;16.10;99.90;;;;;;5070180;28;20628;-75
2022/10/17 00:55:16;;;;;;;0.00;0.00;;;16.00;99.90;;;;;;5070234;28;20198;-75
2022/10/17 00:57:45;;;;;;;0.00;0.00;;;16.00;99.90;;;;;;5056029;28;20617;-76
2022/10/17 01:00:16;;;;;;;0.00;0.00;;;16.00;99.90;;;;;;5068100;28;20221;-76
2022/10/17 01:02:44;;;;;;;0.00;0.00;;;16.00;99.90;;;;;;5069464;28;20200;-75
2022/10/17 01:05:14;;;;;;;0.00;0.00;;;16.00;99.90;;;;;;5060303;28;20282;-75
2022/10/17 01:07:43;;;;;;;0.00;0.00;;;16.00;99.90;;;;;;5068293;28;20205;-75
2022/10/17 01:10:13;;;;;;;0.00;0.00;;;16.00;99.90;;;;;;5071009;28;20690;-75
2022/10/17 01:12:51;;;;;;;0.00;0.00;;;16.00;99.90;;;;;;5074827;28;20213;-76
2022/10/17 01:15:28;;;;;;;0.00;0.00;;;16.00;99.90;;;;;;5090159;28;20214;-74
2022/10/17 01:18:08;;;;;;;0.00;0.00;;;16.00;99.90;;;;;;5073337;28;20219;-74
2022/10/17 01:21:06;;;;;;;0.00;0.00;;;15.90;99.90;;;;;;5073743;28;20251;-74
2022/10/17 01:23:57;;;;;;;0.00;0.00;;;15.90;99.90;;;;;;5056936;28;20197;-74
2022/10/17 01:26:35;;;;;;;0.00;0.00;;;15.80;99.90;;;;;;5069293;28;20250;-74
2022/10/17 01:29:33;;;;;;;0.00;0.00;;;15.80;99.90;;;;;;5072518;28;20225;-74
2022/10/17 01:32:07;;;;;;;0.00;0.00;;;15.80;99.90;;;;;;5073311;28;20255;-74
2022/10/17 01:34:41;;;;;;;0.00;0.00;;;15.80;99.90;;;;;;5054224;28;20704;-75
2022/10/17 01:37:18;;;;;;;0.00;0.00;;;15.80;99.90;;;;;;5053469;28;20202;-74
2022/10/17 01:39:52;;;;;;;0.00;0.00;;;15.80;99.90;;;;;;5067647;28;20245;-75
2022/10/17 01:42:25;;;;;;;0.00;0.00;;;15.70;99.90;;;;;;5071211;28;20230;-75
2022/10/17 01:44:57;;;;;;;0.00;0.00;;;15.80;99.90;;;;;;5091703;28;20220;-74
2022/10/17 01:47:29;;;;;;;0.00;0.00;;;15.80;99.90;;;;;;5073748;28;20205;-74
2022/10/17 01:50:04;;;;;;;0.00;0.00;;;15.70;99.90;;;;;;5077894;28;20224;-76
2022/10/17 01:52:37;;;;;;;0.00;0.00;;;15.70;99.90;;;;;;5072930;28;20258;-74
2022/10/17 01:55:11;;;;;;;0.00;0.00;;;15.70;99.90;;;;;;5072330;28;20222;-74
2022/10/17 01:57:43;;;;;;;0.00;0.00;;;15.70;99.90;;;;;;5072497;28;20210;-74
2022/10/17 02:00:17;;;;;;;0.00;0.00;;;15.80;99.90;;;;;;5072260;28;20209;-74
2022/10/17 02:02:58;;;;;;;0.00;0.00;;;15.80;99.90;;;;;;5073323;28;20197;-74
2022/10/17 02:05:31;;;;;;;0.00;0.00;;;15.90;99.90;;;;;;5066844;28;20197;-74
2022/10/17 02:07:59;;;;;;;0.00;0.00;;;15.80;99.90;;;;;;5072257;28;20668;-76
2022/10/17 02:10:39;;;;;;;0.00;0.00;;;15.80;99.90;;;;;;5071473;28;20277;-75
2022/10/17 02:13:18;;;;;;;0.00;0.00;;;15.80;99.90;;;;;;5087382;28;20746;-74
2022/10/17 02:15:59;;;;;;;0.00;0.00;;;15.80;99.90;;;;;;5072422;28;20265;-74
2022/10/17 02:18:53;;;;;;;0.00;0.00;;;15.80;99.90;;;;;;5068173;28;20696;-74
2022/10/17 02:21:28;;;;;;;0.00;0.00;;;15.80;99.90;;;;;;5065010;28;20251;-74
2022/10/17 02:24:02;;;;;;;0.00;0.00;;;15.70;99.90;;;;;;5072362;28;20255;-74
2022/10/17 02:26:36;;;;;;;0.00;0.00;;;15.70;99.90;;;;;;5072793;28;20280;-75
2022/10/17 02:29:08;;;;;;;0.00;0.00;;;15.70;99.90;;;;;;5070874;28;20692;-75
2022/10/17 02:31:39;;;;;;;0.00;0.00;;;15.70;99.90;;;;;;5071150;28;20197;-75
2022/10/17 02:34:13;;;;;;;0.00;0.00;;;15.60;99.90;;;;;;5070336;28;20226;-74
2022/10/17 02:36:45;;;;;;;0.00;0.00;;;15.70;99.90;;;;;;5073589;28;20251;-74
2022/10/17 02:39:15;;;;;;;0.00;0.00;;;15.60;99.90;;;;;;5070872;28;20718;-74
2022/10/17 02:41:44;;;;;;;0.00;0.00;;;15.60;99.90;;;;;;5071863;28;20279;-74
2022/10/17 02:44:12;;;;;;;0.00;0.00;;;15.60;99.90;;;;;;5072030;28;20679;-74
2022/10/17 02:46:42;;;;;;;0.00;0.00;;;15.60;99.90;;;;;;5072328;28;20275;-74
2022/10/17 02:49:18;;;;;;;0.00;0.00;;;15.50;99.90;;;;;;5073929;28;20312;-74
2022/10/17 02:51:52;;;;;;;0.00;0.00;;;15.50;99.90;;;;;;5078497;28;20201;-74
2022/10/17 02:54:28;;;;;;;0.00;0.00;;;15.50;99.90;;;;;;5075602;28;20272;-75
2022/10/17 02:57:00;;;;;;;0.00;0.00;;;15.50;99.90;;;;;;5075278;28;20201;-73
2022/10/17 02:59:30;;;;;;;0.00;0.00;;;15.50;99.90;;;;;;5071025;28;20233;-73
2022/10/17 03:02:02;;;;;;;0.00;0.00;;;15.60;99.90;;;;;;5071803;28;20190;-75
2022/10/17 03:04:32;;;;;;;0.00;0.00;;;15.50;99.90;;;;;;5072260;28;20239;-73
2022/10/17 03:07:00;;;;;;;0.00;0.00;;;15.60;99.90;;;;;;5073017;28;20206;-74
2022/10/17 03:09:29;;;;;;;0.00;0.00;;;15.60;99.90;;;;;;5070609;28;20587;-74
2022/10/17 03:11:57;;;;;;;0.00;0.00;;;15.60;99.90;;;;;;5072642;28;20197;-76
2022/10/17 03:14:25;;;;;;;0.00;0.00;;;15.50;99.90;;;;;;5070861;28;20259;-76
2022/10/17 03:16:53;;;;;;;0.00;0.00;;;15.50;99.90;;;;;;5071097;28;20239;-74
2022/10/17 03:19:21;;;;;;;0.00;0.00;;;15.50;99.90;;;;;;5070353;28;20225;-74
2022/10/17 03:21:52;;;;;;;0.00;0.00;;;15.60;99.90;;;;;;5071564;28;20202;-76
2022/10/17 03:24:20;;;;;;;0.00;0.00;;;15.60;99.90;;;;;;5060889;28;20202;-75
2022/10/17 03:26:48;;;;;;;0.00;0.00;;;15.50;99.90;;;;;;5060984;28;20247;-76
2022/10/17 03:29:16;;;;;;;0.00;0.00;;;15.60;99.90;;;;;;5072751;28;20271;-76
2022/10/17 03:31:43;;;;;;;0.00;0.00;;;15.60;99.90;;;;;;5072152;28;20671;-76
2022/10/17 03:34:15;;;;;;;0.00;0.00;;;15.50;99.90;;;;;;5070269;28;20218;-76
2022/10/17 03:36:43;;;;;;;0.00;0.00;;;15.50;99.90;;;;;;5071373;28;20255;-76
2022/10/17 03:39:13;;;;;;;0.00;0.00;;;15.50;99.90;;;;;;5069796;28;20221;-76
2022/10/17 03:41:42;;;;;;;0.00;0.00;;;15.40;99.90;;;;;;5071987;28;20564;-76
2022/10/17 03:44:10;;;;;;;0.00;0.00;;;15.40;99.90;;;;;;5072399;28;20267;-76
2022/10/17 03:46:38;;;;;;;0.00;0.00;;;15.40;99.90;;;;;;5079120;28;20217;-76
2022/10/17 03:49:06;;;;;;;0.00;0.00;;;15.40;99.90;;;;;;5082018;28;20244;-74
2022/10/17 03:51:35;;;;;;;0.00;0.00;;;15.30;99.90;;;;;;5077016;28;20676;-74
2022/10/17 03:54:09;;;;;;;0.00;0.00;;;15.30;99.90;;;;;;5073374;28;20235;-74
2022/10/17 03:56:38;;;;;;;0.00;0.00;;;15.30;99.90;;;;;;5071836;28;20206;-75
2022/10/17 03:59:13;;;;;;;0.00;0.00;;;15.20;99.90;;;;;;5068885;28;20488;-77
2022/10/17 04:01:43;;;;;;;0.00;0.00;;;15.30;99.90;;;;;;5069017;28;20201;-76
2022/10/17 04:04:12;;;;;;;0.00;0.00;;;15.30;99.90;;;;;;5075624;28;20194;-75
2022/10/17 04:06:40;;;;;;;0.00;0.00;;;15.20;99.90;;;;;;5087606;28;20202;-75
2022/10/17 04:09:10;;;;;;;0.00;0.00;;;15.20;99.90;;;;;;5085537;28;20220;-75
2022/10/17 04:11:54;;;;;;;0.00;0.00;;;15.20;99.90;;;;;;5081504;28;20269;-75
2022/10/17 04:14:23;;;;;;;0.00;0.00;;;15.20;99.90;;;;;;5083180;28;20218;-75
2022/10/17 04:16:52;;;;;;;0.00;0.00;;;15.20;99.90;;;;;;5078670;28;20309;-75
2022/10/17 04:19:21;;;;;;;0.00;0.00;;;15.10;99.90;;;;;;5082646;28;20225;-73
2022/10/17 04:21:50;;;;;;;0.00;0.00;;;15.10;99.90;;;;;;5084701;28;20206;-74
2022/10/17 04:24:19;;;;;;;0.00;0.00;;;15.10;99.90;;;;;;5074803;28;20220;-74
2022/10/17 04:27:06;;;;;;;0.00;0.00;;;15.10;99.90;;;;;;5086838;28;20208;-75
2022/10/17 04:29:38;;;;;;;0.00;0.00;;;15.10;99.90;;;;;;5081818;28;20244;-75
2022/10/17 04:32:19;;;;;;;0.00;0.00;;;15.10;99.90;;;;;;5077610;28;20741;-74
2022/10/17 04:34:50;;;;;;;0.00;0.00;;;15.10;99.90;;;;;;5071823;28;20287;-75
2022/10/17 04:37:21;;;;;;;0.00;0.00;;;15.10;99.90;;;;;;5070205;28;20296;-75
2022/10/17 04:39:51;;;;;;;0.00;0.00;;;15.00;99.90;;;;;;5069685;28;20259;-75
2022/10/17 04:42:21;;;;;;;0.05;0.05;;;15.10;99.90;;;;;;5069843;28;20202;-75
2022/10/17 04:44:51;;;;;;;0.00;0.00;;;15.00;99.90;;;;;;5070298;28;20198;-75
2022/10/17 04:47:19;;;;;;;0.00;0.00;;;15.00;99.90;;;;;;5069334;28;20209;-75
2022/10/17 04:49:47;;;;;;;0.00;0.00;;;15.00;99.90;;;;;;5068358;28;20707;-74
2022/10/17 04:52:16;;;;;;;0.00;0.00;;;15.00;99.90;;;;;;5067792;28;20228;-74
2022/10/17 04:54:45;;;;;;;0.00;0.00;;;15.00;99.90;;;;;;5070291;28;20259;-75
2022/10/17 04:57:14;;;;;;;0.00;0.00;;;15.00;99.90;;;;;;5069199;28;20197;-74
2022/10/17 04:59:50;;;;;;;0.00;0.00;;;15.00;99.90;;;;;;5079524;22;20711;-78
2022/10/17 05:02:25;;;;;;;0.00;0.00;;;15.00;99.90;;;;;;5049669;28;20194;-76
2022/10/17 05:04:53;;;;;;;0.00;0.00;;;15.00;99.90;;;;;;5051097;28;20190;-76
2022/10/17 05:07:22;;;;;;;0.00;0.00;;;14.90;99.90;;;;;;5049377;28;20221;-77
2022/10/17 05:10:04;;;;;;;0.00;0.00;;;14.90;99.90;;;;;;5049896;28;20224;-76
2022/10/17 05:12:33;;;;;;;0.10;0.10;;;14.90;99.90;;;;;;5049160;28;20194;-76
2022/10/17 05:15:02;;;;;;;0.10;0.10;;;14.80;99.90;;;;;;5049473;28;20218;-77
2022/10/17 05:17:30;;;;;;;0.10;0.10;;;14.80;99.90;;;;;;5049061;28;20202;-76
2022/10/17 05:19:59;;;;;;;0.00;0.00;;;14.80;99.90;;;;;;5049687;28;20305;-76
2022/10/17 05:22:29;;;;;;;0.00;0.00;;;14.80;99.90;;;;;;5050097;28;20197;-76
2022/10/17 05:24:57;;;;;;;0.00;0.00;;;14.80;99.90;;;;;;5052441;28;20610;-73
2022/10/17 05:27:25;;;;;;;0.00;0.00;;;14.90;99.90;;;;;;5049619;28;20282;-76
2022/10/17 05:29:53;;;;;;;0.00;0.00;;;14.80;99.90;;;;;;5050614;28;20210;-77
2022/10/17 05:32:28;;;;;;;0.00;0.00;;;14.90;99.90;;;;;;5053491;28;20393;-77
2022/10/17 05:34:57;;;;;;;0.00;0.00;;;14.80;99.90;;;;;;5050133;28;20218;-75
2022/10/17 05:37:26;;;;;;;0.00;0.00;;;14.90;99.90;;;;;;5048832;28;20198;-74
2022/10/17 05:39:56;;;;;;;0.00;0.00;;;14.80;99.90;;;;;;5049684;28;20329;-74
2022/10/17 05:42:25;;;;;;;0.00;0.00;;;14.80;99.90;;;;;;5049342;28;20199;-74
2022/10/17 05:44:53;;;;;;;0.00;0.00;;;14.80;99.90;;;;;;5049318;28;20190;-74
2022/10/17 05:47:21;;;;;;;0.00;0.00;;;14.80;99.90;;;;;;5048213;28;20229;-74
2022/10/17 05:49:51;;;;;;;0.00;0.00;;;14.80;99.90;;;;;;5038035;28;20218;-74
2022/10/17 05:52:25;;;;;;;0.00;0.00;;;14.80;99.90;;;;;;5049385;28;20293;-73
2022/10/17 05:55:10;;;;;;;0.00;0.00;;;14.80;99.90;;;;;;5048855;28;20222;-74
2022/10/17 05:57:38;;;;;;;0.00;0.00;;;14.80;99.90;;;;;;5049929;28;20199;-73
2022/10/17 06:00:11;;;;;;;0.00;0.00;;;14.80;99.90;;;;;;5054879;28;20230;-73
2022/10/17 06:02:44;;;;;;;0.03;0.03;;;14.80;99.90;;;;;;5052608;28;20256;-74
2022/10/17 06:05:16;;;;;;;0.00;0.00;;;14.80;99.90;;;;;;5052711;28;20207;-73
2022/10/17 06:07:44;;;;;;;0.00;0.00;;;14.80;99.90;;;;;;5051894;28;20215;-73
2022/10/17 06:10:15;;;;;;;0.00;0.00;;;14.80;99.90;;;;;;5053082;28;20230;-74
2022/10/17 06:12:43;;;;;;;0.00;0.00;;;14.90;99.90;;;;;;5053882;28;20218;-74
2022/10/17 06:15:12;;;;;;;0.00;0.00;;;15.00;99.90;;;;;;5052466;28;20222;-75
2022/10/17 06:17:43;;;;;;;0.00;0.00;;;15.00;99.90;;;;;;5051839;28;20202;-74
2022/10/17 06:20:11;;;;;;;0.10;0.10;;;15.00;99.90;;;;;;5053561;28;20429;-75
2022/10/17 06:22:40;;;;;;;0.00;0.00;;;15.10;99.90;;;;;;5053728;28;20199;-74
2022/10/17 06:25:14;;;;;;;0.00;0.00;;;15.20;99.90;;;;;;5050987;28;20281;-76
2022/10/17 06:27:42;;;;;;;0.10;0.10;;;15.30;99.90;;;;;;5050001;28;20203;-75
2022/10/17 06:30:11;;;;;;;0.00;0.00;;;15.40;99.90;;;;;;5051713;28;20226;-74
2022/10/17 06:32:39;;;;;;;0.00;0.00;;;15.40;99.90;;;;;;5052297;28;20568;-74
2022/10/17 06:35:08;;;;;;;0.00;0.00;;;15.50;99.90;;;;;;5041712;28;20205;-74
2022/10/17 06:37:36;;;;;;;0.00;0.00;;;15.50;99.90;;;;;;5031531;28;20199;-74
2022/10/17 06:40:11;;;;;;;0.00;0.00;;;15.60;99.90;;;;;;5048770;28;20215;-75
2022/10/17 06:42:40;;;;;;;0.00;0.00;;;15.70;99.90;;;;;;5032455;28;20203;-74
2022/10/17 06:45:28;;;;;;;0.00;0.00;;;15.70;99.90;;;;;;5032165;28;20207;-74
2022/10/17 06:48:14;;;;;;;0.00;0.00;;;15.80;99.90;;;;;;5058109;28;20211;-73
2022/10/17 06:50:43;;;;;;;0.00;0.00;;;15.80;99.90;;;;;;5044612;28;20195;-74
2022/10/17 06:53:16;;;;;;;0.00;0.00;;;15.90;99.90;;;;;;5043388;28;20285;-74
2022/10/17 06:55:54;;;;;;;0.00;0.00;;;15.90;99.90;;;;;;5066515;28;20218;-74
2022/10/17 06:58:39;;;;;;;0.00;0.00;;;15.90;99.90;;;;;;5054091;28;20721;-74
2022/10/17 07:01:14;;;;;;;0.00;0.00;;;16.00;99.90;;;;;;5051670;28;20273;-73
2022/10/17 07:03:48;;;;;;;0.00;0.00;;;16.10;99.90;;;;;;5051687;28;20231;-74
2022/10/17 07:06:16;;;;;;;0.00;0.00;;;16.20;99.90;;;;;;5051490;28;20195;-73
2022/10/17 07:08:47;;;;;;;0.00;0.00;;;16.30;99.90;;;;;;5051097;28;20222;-74
2022/10/17 07:11:20;;;;;;;0.00;0.00;;;16.40;99.90;;;;;;5051755;28;20312;-74
2022/10/17 07:13:50;;;;;;;0.00;0.00;;;16.40;99.90;;;;;;5051682;28;20203;-74
2022/10/17 07:16:20;;;;;;;0.00;0.00;;;16.60;99.90;;;;;;5051421;28;20230;-74
2022/10/17 07:18:53;;;;;;;0.00;0.00;;;16.60;99.90;;;;;;5050774;28;20245;-73
2022/10/17 07:21:21;;;;;;;0.00;0.00;;;16.70;99.90;;;;;;5051200;28;20229;-73
2022/10/17 07:23:49;;;;;;;0.00;0.00;;;16.70;99.90;;;;;;5051244;28;20268;-73
2022/10/17 07:26:19;;;;;;;0.00;0.00;;;16.80;99.90;;;;;;5051035;28;20545;-73
2022/10/17 07:28:52;;;;;;;0.00;0.00;;;16.80;99.90;;;;;;5050713;28;20367;-75
2022/10/17 07:31:30;;;;;;;0.00;0.00;;;16.90;99.90;;;;;;5051137;28;20195;-73
2022/10/17 07:33:59;;;;;;;0.00;0.00;;;16.90;99.90;;;;;;5052121;28;20196;-74
2022/10/17 07:36:28;;;;;;;0.00;0.00;;;16.90;99.90;;;;;;5050975;28;20230;-74
2022/10/17 07:38:58;;;;;;;0.00;0.00;;;16.90;99.90;;;;;;5050015;28;20233;-74
2022/10/17 07:41:27;;;;;;;0.00;0.00;;;16.90;99.90;;;;;;5050867;28;20198;-74
2022/10/17 07:43:56;;;;;;;0.00;0.00;;;17.00;99.90;;;;;;5051875;28;20269;-74
2022/10/17 07:46:30;;;;;;;0.00;0.00;;;17.00;99.90;;;;;;5050367;28;20213;-74
2022/10/17 07:48:58;;;;;;;0.00;0.00;;;17.00;99.90;;;;;;5050066;28;20271;-75
2022/10/17 07:51:26;;;;;;;0.00;0.00;;;17.00;99.90;;;;;;5050639;28;20205;-75
2022/10/17 07:53:54;;;;;;;0.00;0.00;;;17.10;99.90;;;;;;5050654;28;20199;-75
2022/10/17 07:56:23;;;;;;;0.00;0.00;;;17.20;99.90;;;;;;5051526;28;20230;-74
2022/10/17 07:58:53;;;;;;;0.00;0.00;;;17.20;99.90;;;;;;5050860;28;20309;-74
2022/10/17 08:01:21;;;;;;;0.00;0.00;;;17.20;99.90;;;;;;5050509;28;20672;-75
2022/10/17 08:03:49;;;;;;;0.00;0.00;;;17.20;99.90;;;;;;5052338;28;20552;-75
2022/10/17 08:06:17;;;;;;;0.00;0.00;;;17.20;99.90;;;;;;5051618;28;20205;-74
2022/10/17 08:08:45;;;;;;;0.00;0.00;;;17.30;99.90;;;;;;5057238;28;20209;-74
2022/10/17 08:11:14;;;;;;;0.00;0.00;;;17.40;99.90;;;;;;5052015;28;20540;-74
2022/10/17 08:13:42;;;;;;;0.00;0.00;;;17.40;99.90;;;;;;5051822;28;20225;-74
2022/10/17 08:16:13;;;;;;;0.00;0.00;;;17.50;99.90;;;;;;5051302;28;20198;-74
2022/10/17 08:18:42;;;;;;;0.00;0.00;;;17.60;99.90;;;;;;5051034;28;20218;-74
2022/10/17 08:21:12;;;;;;;0.00;0.00;;;17.60;99.90;;;;;;5050958;28;20669;-74
2022/10/17 08:23:40;;;;;;;0.00;0.00;;;17.70;99.90;;;;;;5053936;28;20194;-74
2022/10/17 08:26:09;;;;;;;0.00;0.00;;;17.80;99.90;;;;;;5056505;28;20206;-74
2022/10/17 08:28:39;;;;;;;0.00;0.00;;;17.80;99.90;;;;;;5052358;28;20230;-74
2022/10/17 08:31:10;;;;;;;0.00;0.00;;;17.90;99.90;;;;;;5051293;28;20194;-74
2022/10/17 08:33:40;;;;;;;0.00;0.00;;;17.90;99.90;;;;;;5051558;28;20195;-75
2022/10/17 08:36:08;;;;;;;0.00;0.00;;;18.00;99.90;;;;;;5051315;28;20600;-76
2022/10/17 08:38:38;;;;;;;0.00;0.00;;;18.10;99.90;;;;;;5050753;28;20290;-75
2022/10/17 08:41:28;;;;;;;0.00;0.00;;;18.20;99.90;;;;;;5050733;28;20203;-75
2022/10/17 08:44:05;;;;;;;0.00;0.00;;;18.20;99.90;;;;;;5051126;28;20251;-74
2022/10/17 08:46:37;;;;;;;0.00;0.00;;;18.30;99.90;;;;;;5051605;28;20220;-74
2022/10/17 08:49:14;;;;;;;0.00;0.00;;;18.40;99.90;;;;;;5051356;28;20214;-74
2022/10/17 08:51:49;;;;;;;0.00;0.00;;;18.50;99.90;;;;;;5051146;28;20247;-73
2022/10/17 08:54:20;;;;;;;0.00;0.00;;;18.50;99.90;;;;;;5050014;28;20210;-74
2022/10/17 08:56:50;;;;;;;0.00;0.00;;;18.60;99.90;;;;;;5050605;28;20242;-74
2022/10/17 08:59:22;;;;;;;0.10;0.10;;;18.60;99.90;;;;;;5030218;28;20230;-76
2022/10/17 09:01:55;;;;;;;0.00;0.00;;;18.70;99.90;;;;;;5030955;28;20187;-74
2022/10/17 09:04:44;;;;;;;0.00;0.00;;;18.70;99.90;;;;;;5031349;28;20245;-74
2022/10/17 09:07:18;;;;;;;0.00;0.00;;;18.80;99.90;;;;;;5031357;28;20187;-74
2022/10/17 09:09:55;;;;;;;0.00;0.00;;;18.90;99.90;;;;;;5030745;28;20207;-74
2022/10/17 09:12:28;;;;;;;0.00;0.00;;;19.00;99.90;;;;;;5031096;28;20618;-74
2022/10/17 09:15:23;;;;;;;0.00;0.00;;;19.10;99.90;;;;;;5031147;28;20229;-74
2022/10/17 09:17:55;;;;;;;0.00;0.00;;;19.20;99.90;;;;;;5030789;28;20211;-74
2022/10/17 09:20:27;;;;;;;0.00;0.00;;;19.30;99.90;;;;;;5031255;28;20701;-74
2022/10/17 09:22:59;;;;;;;0.00;0.00;;;19.40;99.90;;;;;;5031722;28;20222;-76
2022/10/17 09:25:27;;;;;;;0.00;0.00;;;19.50;99.90;;;;;;5036205;28;20229;-74
2022/10/17 09:28:06;;;;;;;0.00;0.00;;;19.50;99.90;;;;;;5050444;28;20240;-75
2022/10/17 09:30:41;;;;;;;0.00;0.00;;;19.70;99.90;;;;;;5051398;28;20224;-74
2022/10/17 09:33:15;;;;;;;0.00;0.00;;;19.80;99.90;;;;;;5053285;28;20205;-73
2022/10/17 09:36:05;;;;;;;0.00;0.00;;;19.80;99.90;;;;;;5055037;28;20428;-75
2022/10/17 09:38:40;;;;;;;0.00;0.00;;;20.00;99.90;;;;;;5054172;28;20275;-74
2022/10/17 09:41:16;;;;;;;0.00;0.00;;;20.10;99.90;;;;;;5053715;28;20202;-74
2022/10/17 09:44:16;;;;;;;0.00;0.00;;;20.10;99.90;;;;;;5054380;28;20695;-74
2022/10/17 09:46:59;;;;;;;0.00;0.00;;;20.20;99.90;;;;;;5054634;28;20198;-74
2022/10/17 09:49:32;;;;;;;0.00;0.00;;;20.30;99.90;;;;;;5054027;28;20559;-74
2022/10/17 09:52:03;;;;;;;0.00;0.00;;;20.40;99.90;;;;;;5054451;28;20194;-74
2022/10/17 09:54:41;;;;;;;0.00;0.00;;;20.50;99.90;;;;;;5054252;28;20187;-74
2022/10/17 09:57:11;;;;;;;0.00;0.00;;;20.50;99.90;;;;;;5053969;28;20267;-75
2022/10/17 09:59:41;;;;;;;0.00;0.00;;;20.60;99.90;;;;;;5053498;28;20226;-75
2022/10/17 10:02:18;;;;;;;0.00;0.00;;;20.70;99.90;;;;;;5054008;28;20248;-74
2022/10/17 10:04:54;;;;;;;0.00;0.00;;;20.80;99.90;;;;;;5054113;28;20225;-75
2022/10/17 10:07:39;;;;;;;0.00;0.00;;;20.90;99.90;;;;;;5053500;28;20186;-75
2022/10/17 10:10:23;;;;;;;0.00;0.00;;;21.00;99.90;;;;;;5053846;28;20210;-74
2022/10/17 10:13:04;;;;;;;0.00;0.00;;;21.00;99.90;;;;;;5053924;28;20190;-74
2022/10/17 10:15:36;;;;;;;0.00;0.00;;;21.10;99.90;;;;;;5054004;28;20198;-74
2022/10/17 10:18:32;;;;;;;0.00;0.00;;;21.20;99.90;;;;;;5053256;28;20214;-75
2022/10/17 10:21:07;;;;;;;0.00;0.00;;;21.30;99.90;;;;;;5053910;28;20561;-75
2022/10/17 10:23:39;;;;;;;0.00;0.00;;;21.30;99.90;;;;;;5054356;28;20269;-75
2022/10/17 10:26:20;;;;;;;0.00;0.00;;;21.40;99.90;;;;;;5054195;28;20259;-75
2022/10/17 10:29:00;;;;;;;0.00;0.00;;;21.50;99.90;;;;;;5053416;28;20218;-76
2022/10/17 10:31:32;;;;;;;0.00;0.00;;;21.50;99.90;;;;;;5054184;28;20247;-75
2022/10/17 10:34:02;;;;;;;0.00;0.00;;;21.50;99.90;;;;;;5053712;28;20669;-76
2022/10/17 10:36:53;;;;;;;0.00;0.00;;;21.60;99.90;;;;;;5053894;28;20226;-75
2022/10/17 10:39:37;;;;;;;0.00;0.00;;;21.70;99.90;;;;;;5052609;28;20565;-75
2022/10/17 10:42:08;;;;;;;0.00;0.00;;;21.80;99.90;;;;;;5053574;28;20194;-74
2022/10/17 10:44:39;;;;;;;0.00;0.00;;;21.80;99.90;;;;;;5053150;28;20191;-75
2022/10/17 10:47:14;;;;;;;0.00;0.00;;;21.80;99.90;;;;;;5053392;28;20195;-74
2022/10/17 10:49:42;;;;;;;0.00;0.00;;;21.80;99.90;;;;;;5052950;28;20568;-75
2022/10/17 10:52:18;;;;;;;0.00;0.00;;;21.80;99.90;;;;;;5052051;28;20715;-76
2022/10/17 10:54:56;;;;;;;0.00;0.00;;;21.90;99.90;;;;;;5053198;28;20198;-74
2022/10/17 10:57:28;;;;;;;0.00;0.00;;;21.90;99.90;;;;;;5047141;28;20206;-77
2022/10/17 11:00:02;;;;;;;0.00;0.00;;;21.90;99.90;;;;;;5072990;22;20647;-74
2022/10/17 11:02:36;;;;;;;0.00;0.00;;;22.00;99.90;;;;;;5034533;28;20203;-75
2022/10/17 11:05:11;;;;;;;0.00;0.00;;;22.10;99.90;;;;;;5034070;28;20194;-76
2022/10/17 11:07:43;;;;;;;0.00;0.00;;;22.20;99.90;;;;;;5013748;28;20190;-76
2022/10/17 11:10:19;;;;;;;0.00;0.00;;;22.40;99.90;;;;;;5031318;28;20227;-76
2022/10/17 11:12:52;;;;;;;0.00;0.00;;;22.50;99.90;;;;;;5033405;28;20665;-76
2022/10/17 11:15:26;;;;;;;0.00;0.00;;;22.60;99.90;;;;;;5033943;28;20268;-76
2022/10/17 11:17:59;;;;;;;0.00;0.00;;;22.70;99.90;;;;;;5032590;28;20265;-76
2022/10/17 11:20:34;;;;;;;0.00;0.00;;;22.80;99.90;;;;;;5033441;28;20218;-76
2022/10/17 11:23:18;;;;;;;0.00;0.00;;;23.00;99.90;;;;;;5033316;28;20683;-76
2022/10/17 11:25:50;;;;;;;0.00;0.00;;;23.20;99.90;;;;;;5033268;28;20195;-73
2022/10/17 11:28:21;;;;;;;0.00;0.00;;;23.70;99.90;;;;;;5024315;28;20206;-74
2022/10/17 11:30:55;;;;;;;0.00;0.00;;;24.10;99.90;;;;;;5034217;28;20223;-74
2022/10/17 11:33:29;;;;;;;0.00;0.00;;;24.30;99.90;;;;;;5034890;28;20616;-75
2022/10/17 11:36:03;;;;;;;0.00;0.00;;;24.50;99.90;;;;;;5034353;28;20249;-74
2022/10/17 11:38:43;;;;;;;0.00;0.00;;;24.80;99.90;;;;;;5034052;28;20226;-75
2022/10/17 11:41:18;;;;;;;0.00;0.00;;;24.80;99.90;;;;;;5034935;28;20214;-74
2022/10/17 11:43:53;;;;;;;0.00;0.00;;;25.00;99.90;;;;;;5033583;28;20191;-74
2022/10/17 11:46:26;;;;;;;0.00;0.00;;;25.10;99.90;;;;;;5033878;28;20202;-75
2022/10/17 11:49:06;;;;;;;0.00;0.00;;;25.30;99.90;;;;;;5032552;28;20745;-74
2022/10/17 11:51:45;;;;;;;0.00;0.00;;;25.50;99.90;;;;;;5033476;28;20213;-76
2022/10/17 11:54:34;;;;;;;0.00;0.00;;;25.70;99.90;;;;;;5033430;28;20202;-75
2022/10/17 11:57:18;;;;;;;0.00;0.00;;;25.70;99.90;;;;;;5024050;28;20211;-74
2022/10/17 11:59:58;;;;;;;0.00;0.00;;;25.60;99.90;;;;;;5033295;28;20311;-75
2022/10/17 12:02:37;;;;;;;0.00;0.00;;;25.50;99.90;;;;;;5026256;28;20208;-75
2022/10/17 12:05:16;;;;;;;0.00;0.00;;;25.70;99.90;;;;;;5019270;28;20254;-74
2022/10/17 12:07:49;;;;;;;0.00;0.00;;;25.80;99.90;;;;;;5024256;28;20257;-75
2022/10/17 12:10:29;;;;;;;0.00;0.00;;;26.10;99.90;;;;;;5017443;28;20226;-75
2022/10/17 12:13:36;;;;;;;0.00;0.00;;;26.30;99.90;;;;;;5015535;28;20191;-75
2022/10/17 12:16:38;;;;;;;0.00;0.00;;;26.50;99.90;;;;;;5032552;28;20839;-75
2022/10/17 12:19:25;;;;;;;0.00;0.00;;;26.60;99.90;;;;;;5031404;28;20782;-76
2022/10/17 12:22:03;;;;;;;0.00;0.00;;;26.80;99.90;;;;;;5027911;28;20252;-76
2022/10/17 12:24:41;;;;;;;0.00;0.00;;;26.90;99.90;;;;;;5020885;28;20207;-75
2022/10/17 12:27:33;;;;;;;0.00;0.00;;;26.60;99.90;;;;;;5025268;28;20203;-75
2022/10/17 12:30:05;;;;;;;0.00;0.00;;;26.60;99.90;;;;;;5032257;28;20257;-75
2022/10/17 12:32:33;;;;;;;0.00;0.00;;;26.80;99.90;;;;;;5030939;28;20206;-75
2022/10/17 12:35:23;;;;;;;0.00;0.00;;;26.90;99.90;;;;;;5031937;28;20677;-76
2022/10/17 12:38:15;;;;;;;0.00;0.00;;;27.00;99.90;;;;;;5035155;28;20252;-76
2022/10/17 12:41:05;;;;;;;0.00;0.00;;;26.90;99.90;;;;;;5037070;28;21061;-75
2022/10/17 12:43:49;;;;;;;0.00;0.00;;;26.70;99.90;;;;;;5033796;28;20215;-75
2022/10/17 12:46:47;;;;;;;0.00;0.00;;;26.80;99.90;;;;;;5037961;28;20237;-76
2022/10/17 12:49:38;;;;;;;0.00;0.00;;;26.80;99.90;;;;;;5036889;28;20237;-76
2022/10/17 12:52:46;;;;;;;0.00;0.00;;;26.80;99.90;;;;;;5036354;28;20617;-75
2022/10/17 12:55:16;;;;;;;0.00;0.00;;;27.10;99.90;;;;;;5032489;28;20223;-75
2022/10/17 12:57:51;;;;;;;0.00;0.00;;;27.00;99.90;;;;;;5031183;28;20203;-75
2022/10/17 13:00:31;;;;;;;0.00;0.00;;;27.10;99.90;;;;;;5012224;28;20720;-75
2022/10/17 13:03:06;;;;;;;0.00;0.00;;;27.20;99.90;;;;;;5012896;28;20210;-75
2022/10/17 13:05:36;;;;;;;0.00;0.00;;;27.20;99.90;;;;;;5012217;28;20242;-76
2022/10/17 13:08:07;;;;;;;0.00;0.00;;;27.40;99.90;;;;;;5015982;28;20577;-75
2022/10/17 13:10:38;;;;;;;0.00;0.00;;;27.60;99.90;;;;;;5016269;28;20215;-75
2022/10/17 13:13:16;;;;;;;0.00;0.00;;;27.60;99.90;;;;;;5015862;28;20195;-75
2022/10/17 13:15:48;;;;;;;0.00;0.00;;;27.80;99.90;;;;;;5020894;28;20210;-75
2022/10/17 13:18:23;;;;;;;0.00;0.00;;;27.90;99.90;;;;;;5034698;28;20203;-75
2022/10/17 13:21:00;;;;;;;0.00;0.00;;;28.00;99.90;;;;;;5037104;28;20222;-75